Impacts TAF Board
For situational awareness. Not to be used for flight planning purposes.
IDs:

KPHX - Phoenix/Sky Harbor, AZ, US

Issued at 1136 UTC 10 Aug 2022
Updated at 1401 UTC 10 Aug 2022
Potential Impact None Slight Moderate High
Time<<11/02Z 11/03Z 11/04Z 11/05Z 11/06Z 11/07Z 11/08Z 11/09Z 11/10Z 11/11Z 11/12Z 11/13Z 11/14Z>>
Type PRVL PRVL PRVL PRVL PRVL PRVL PRVL PRVL PRVL PRVL PRVL PRVL PRVL
VIS >6 >6 >6 >6 >6 >6 >6 >6 >6 >6 >6 >6 >6
CIG -- -- 80 80 150 150 150 150 150 150 150 150 150
Cover SCT SCT BKN BKN BKN BKN BKN BKN BKN BKN BKN BKN BKN
FltCat VFR VFR VFR VFR VFR VFR VFR VFR VFR VFR VFR VFR VFR
WX -- -- VCTS VCTS -- -- -- -- -- -- -- -- --
WDir 280 280 130 130 100 100 100 100 100 100 100 100 100
WSpd 7 7 15 15 10 10 10 10 10 10 10 10 10
WGst -- -- 25 25 -- -- -- -- -- -- -- -- --
WSHgt -- -- -- -- -- -- -- -- -- -- -- -- --
WSDir -- -- -- -- -- -- -- -- -- -- -- -- --
WSSpd -- -- -- -- -- -- -- -- -- -- -- -- --
Raw TAF
KPHX 101136Z 1012/1118 14008KT P6SM SCT150 BKN200
  FM101400 VRB06KT P6SM SCT100 BKN200
  FM102000 28007KT P6SM SCT250
  FM110400 13015G25KT P6SM VCTS BKN080CB BKN120
  FM110600 10010KT P6SM SCT100 BKN150


METAR Board
Radar Display
Forecast Discussion
For situational awareness. Not to be used for flight planning purposes.